sensor_id;sensor_type;location;lat;lon;timestamp;temperature;humidity
21439;DHT22;10880;50.302;18.736;2023-05-29T00:01:01;18.40;43.60
21439;DHT22;10880;50.302;18.736;2023-05-29T00:03:29;18.40;43.70
21439;DHT22;10880;50.302;18.736;2023-05-29T00:06:01;18.40;43.70
21439;DHT22;10880;50.302;18.736;2023-05-29T00:08:28;18.30;43.60
21439;DHT22;10880;50.302;18.736;2023-05-29T00:10:55;18.30;44.00
21439;DHT22;10880;50.302;18.736;2023-05-29T00:13:22;18.30;43.90
21439;DHT22;10880;50.302;18.736;2023-05-29T00:15:49;18.20;44.00
21439;DHT22;10880;50.302;18.736;2023-05-29T00:18:18;18.20;44.20
21439;DHT22;10880;50.302;18.736;2023-05-29T00:20:45;18.20;43.60
21439;DHT22;10880;50.302;18.736;2023-05-29T00:23:12;18.10;43.80
21439;DHT22;10880;50.302;18.736;2023-05-29T00:25:38;18.10;44.00
21439;DHT22;10880;50.302;18.736;2023-05-29T00:28:07;18.10;44.10
21439;DHT22;10880;50.302;18.736;2023-05-29T00:30:36;18.10;45.00
21439;DHT22;10880;50.302;18.736;2023-05-29T00:33:03;18.10;44.10
21439;DHT22;10880;50.302;18.736;2023-05-29T00:35:29;18.10;44.40
21439;DHT22;10880;50.302;18.736;2023-05-29T00:37:57;18.00;44.30
21439;DHT22;10880;50.302;18.736;2023-05-29T00:40:25;18.10;44.40
21439;DHT22;10880;50.302;18.736;2023-05-29T00:42:52;18.00;44.60
21439;DHT22;10880;50.302;18.736;2023-05-29T00:45:19;18.00;44.20
21439;DHT22;10880;50.302;18.736;2023-05-29T00:47:46;18.00;44.50
21439;DHT22;10880;50.302;18.736;2023-05-29T00:50:14;18.00;44.60
21439;DHT22;10880;50.302;18.736;2023-05-29T00:52:44;18.00;44.70
21439;DHT22;10880;50.302;18.736;2023-05-29T00:55:13;18.00;44.60
21439;DHT22;10880;50.302;18.736;2023-05-29T00:57:41;18.00;44.40
21439;DHT22;10880;50.302;18.736;2023-05-29T01:00:08;18.00;44.60
21439;DHT22;10880;50.302;18.736;2023-05-29T01:02:39;17.90;44.70
21439;DHT22;10880;50.302;18.736;2023-05-29T01:05:07;17.90;44.80
21439;DHT22;10880;50.302;18.736;2023-05-29T01:07:35;17.90;44.70
21439;DHT22;10880;50.302;18.736;2023-05-29T01:10:03;17.90;44.60
21439;DHT22;10880;50.302;18.736;2023-05-29T01:18:12;17.80;45.10
21439;DHT22;10880;50.302;18.736;2023-05-29T01:28:53;17.70;44.70
21439;DHT22;10880;50.302;18.736;2023-05-29T01:31:23;17.70;44.90
21439;DHT22;10880;50.302;18.736;2023-05-29T01:33:59;17.70;45.20
21439;DHT22;10880;50.302;18.736;2023-05-29T01:36:28;17.60;44.70
21439;DHT22;10880;50.302;18.736;2023-05-29T01:38:56;17.60;44.90
21439;DHT22;10880;50.302;18.736;2023-05-29T01:41:24;17.60;45.30
21439;DHT22;10880;50.302;18.736;2023-05-29T01:43:52;17.60;45.20
21439;DHT22;10880;50.302;18.736;2023-05-29T01:46:20;17.50;44.90
21439;DHT22;10880;50.302;18.736;2023-05-29T01:48:47;17.50;45.30
21439;DHT22;10880;50.302;18.736;2023-05-29T01:51:14;17.40;44.90
21439;DHT22;10880;50.302;18.736;2023-05-29T01:53:41;17.40;45.00
21439;DHT22;10880;50.302;18.736;2023-05-29T01:56:09;17.40;45.20
21439;DHT22;10880;50.302;18.736;2023-05-29T01:58:37;17.40;45.20
21439;DHT22;10880;50.302;18.736;2023-05-29T02:01:06;17.30;45.10
21439;DHT22;10880;50.302;18.736;2023-05-29T02:03:33;17.30;45.20
21439;DHT22;10880;50.302;18.736;2023-05-29T02:06:00;17.20;45.60
21439;DHT22;10880;50.302;18.736;2023-05-29T02:08:27;17.20;45.40
21439;DHT22;10880;50.302;18.736;2023-05-29T02:10:53;17.20;45.60
21439;DHT22;10880;50.302;18.736;2023-05-29T02:13:23;17.10;45.50
21439;DHT22;10880;50.302;18.736;2023-05-29T02:15:49;17.10;45.60
21439;DHT22;10880;50.302;18.736;2023-05-29T02:18:16;17.10;45.60
21439;DHT22;10880;50.302;18.736;2023-05-29T02:20:46;17.10;45.60
21439;DHT22;10880;50.302;18.736;2023-05-29T02:23:21;17.00;45.50
21439;DHT22;10880;50.302;18.736;2023-05-29T02:25:47;17.00;45.60
21439;DHT22;10880;50.302;18.736;2023-05-29T02:28:14;17.00;45.50
21439;DHT22;10880;50.302;18.736;2023-05-29T02:30:40;17.00;45.80
21439;DHT22;10880;50.302;18.736;2023-05-29T02:33:09;17.00;45.80
21439;DHT22;10880;50.302;18.736;2023-05-29T02:35:35;17.00;45.90
21439;DHT22;10880;50.302;18.736;2023-05-29T02:38:04;16.90;45.60
21439;DHT22;10880;50.302;18.736;2023-05-29T02:40:30;16.90;45.90
21439;DHT22;10880;50.302;18.736;2023-05-29T02:42:58;16.90;46.00
21439;DHT22;10880;50.302;18.736;2023-05-29T02:45:24;16.90;46.00
21439;DHT22;10880;50.302;18.736;2023-05-29T02:47:51;16.90;46.10
21439;DHT22;10880;50.302;18.736;2023-05-29T02:50:18;16.80;45.90
21439;DHT22;10880;50.302;18.736;2023-05-29T02:52:44;16.80;46.10
21439;DHT22;10880;50.302;18.736;2023-05-29T02:55:14;16.80;46.10
21439;DHT22;10880;50.302;18.736;2023-05-29T02:57:41;16.80;46.40
21439;DHT22;10880;50.302;18.736;2023-05-29T03:00:08;16.80;46.30
21439;DHT22;10880;50.302;18.736;2023-05-29T03:02:35;16.70;46.40
21439;DHT22;10880;50.302;18.736;2023-05-29T03:05:02;16.70;46.30
21439;DHT22;10880;50.302;18.736;2023-05-29T03:07:29;16.70;46.60
21439;DHT22;10880;50.302;18.736;2023-05-29T03:09:56;16.70;46.20
21439;DHT22;10880;50.302;18.736;2023-05-29T03:12:23;16.70;46.50
21439;DHT22;10880;50.302;18.736;2023-05-29T03:14:50;16.70;46.40
21439;DHT22;10880;50.302;18.736;2023-05-29T03:17:16;16.70;46.40
21439;DHT22;10880;50.302;18.736;2023-05-29T03:19:43;16.70;46.50
21439;DHT22;10880;50.302;18.736;2023-05-29T03:24:38;16.70;46.40
21439;DHT22;10880;50.302;18.736;2023-05-29T03:27:05;16.70;46.60
21439;DHT22;10880;50.302;18.736;2023-05-29T03:29:32;16.70;46.70
21439;DHT22;10880;50.302;18.736;2023-05-29T03:32:01;16.70;46.70
21439;DHT22;10880;50.302;18.736;2023-05-29T03:37:00;16.70;46.50
21439;DHT22;10880;50.302;18.736;2023-05-29T03:39:29;16.80;46.80
21439;DHT22;10880;50.302;18.736;2023-05-29T03:41:57;16.80;46.80
21439;DHT22;10880;50.302;18.736;2023-05-29T03:44:24;16.70;46.50
21439;DHT22;10880;50.302;18.736;2023-05-29T03:46:51;16.70;47.00
21439;DHT22;10880;50.302;18.736;2023-05-29T03:49:17;16.70;46.70
21439;DHT22;10880;50.302;18.736;2023-05-29T03:54:11;16.70;46.70
21439;DHT22;10880;50.302;18.736;2023-05-29T03:56:37;16.80;46.90
21439;DHT22;10880;50.302;18.736;2023-05-29T03:59:04;16.80;47.00
21439;DHT22;10880;50.302;18.736;2023-05-29T04:01:32;16.80;47.00
21439;DHT22;10880;50.302;18.736;2023-05-29T04:03:58;16.70;47.00
21439;DHT22;10880;50.302;18.736;2023-05-29T04:06:25;16.80;47.20
21439;DHT22;10880;50.302;18.736;2023-05-29T04:08:52;16.70;47.20
21439;DHT22;10880;50.302;18.736;2023-05-29T04:11:19;16.70;47.20
21439;DHT22;10880;50.302;18.736;2023-05-29T04:16:14;16.70;47.20
21439;DHT22;10880;50.302;18.736;2023-05-29T04:18:42;16.80;47.70
21439;DHT22;10880;50.302;18.736;2023-05-29T04:21:08;16.80;47.60
21439;DHT22;10880;50.302;18.736;2023-05-29T04:23:35;16.80;47.50
21439;DHT22;10880;50.302;18.736;2023-05-29T04:26:02;16.90;47.70
21439;DHT22;10880;50.302;18.736;2023-05-29T04:28:28;16.90;47.70
21439;DHT22;10880;50.302;18.736;2023-05-29T04:30:56;16.90;47.90
21439;DHT22;10880;50.302;18.736;2023-05-29T04:33:23;16.90;47.90
21439;DHT22;10880;50.302;18.736;2023-05-29T04:35:51;17.00;47.90
21439;DHT22;10880;50.302;18.736;2023-05-29T04:38:18;17.00;48.20
21439;DHT22;10880;50.302;18.736;2023-05-29T04:40:52;17.10;48.00
21439;DHT22;10880;50.302;18.736;2023-05-29T04:43:19;17.20;48.00
21439;DHT22;10880;50.302;18.736;2023-05-29T04:46:04;17.20;48.30
21439;DHT22;10880;50.302;18.736;2023-05-29T04:48:33;17.20;48.10
21439;DHT22;10880;50.302;18.736;2023-05-29T04:51:00;17.30;48.30
21439;DHT22;10880;50.302;18.736;2023-05-29T04:53:28;17.40;48.10
21439;DHT22;10880;50.302;18.736;2023-05-29T04:55:56;17.40;48.20
21439;DHT22;10880;50.302;18.736;2023-05-29T04:58:25;17.40;48.20
21439;DHT22;10880;50.302;18.736;2023-05-29T05:00:52;17.50;48.60
21439;DHT22;10880;50.302;18.736;2023-05-29T05:03:19;17.60;48.10
21439;DHT22;10880;50.302;18.736;2023-05-29T05:05:45;17.60;48.20
21439;DHT22;10880;50.302;18.736;2023-05-29T05:08:14;17.60;48.30
21439;DHT22;10880;50.302;18.736;2023-05-29T05:10:40;17.70;48.40
21439;DHT22;10880;50.302;18.736;2023-05-29T05:13:07;17.70;48.50
21439;DHT22;10880;50.302;18.736;2023-05-29T05:15:34;17.80;48.40
21439;DHT22;10880;50.302;18.736;2023-05-29T05:18:01;17.90;48.30
21439;DHT22;10880;50.302;18.736;2023-05-29T05:20:28;17.90;48.50
21439;DHT22;10880;50.302;18.736;2023-05-29T05:22:59;18.00;48.50
21439;DHT22;10880;50.302;18.736;2023-05-29T05:25:26;18.10;48.50
21439;DHT22;10880;50.302;18.736;2023-05-29T05:27:53;18.10;48.70
21439;DHT22;10880;50.302;18.736;2023-05-29T05:30:22;18.20;48.80
21439;DHT22;10880;50.302;18.736;2023-05-29T05:32:48;18.30;48.80
21439;DHT22;10880;50.302;18.736;2023-05-29T05:35:15;18.40;48.80
21439;DHT22;10880;50.302;18.736;2023-05-29T05:37:43;18.50;49.00
21439;DHT22;10880;50.302;18.736;2023-05-29T05:42:48;18.60;48.90
21439;DHT22;10880;50.302;18.736;2023-05-29T05:47:42;18.80;48.80
21439;DHT22;10880;50.302;18.736;2023-05-29T05:50:11;19.10;48.90
21439;DHT22;10880;50.302;18.736;2023-05-29T05:52:38;19.20;49.00
21439;DHT22;10880;50.302;18.736;2023-05-29T05:55:06;19.40;49.10
21439;DHT22;10880;50.302;18.736;2023-05-29T06:00:05;19.60;49.20
21439;DHT22;10880;50.302;18.736;2023-05-29T06:02:42;19.80;49.30
21439;DHT22;10880;50.302;18.736;2023-05-29T06:05:14;19.90;49.30
21439;DHT22;10880;50.302;18.736;2023-05-29T06:10:09;20.30;49.70
21439;DHT22;10880;50.302;18.736;2023-05-29T06:12:37;20.50;49.50
21439;DHT22;10880;50.302;18.736;2023-05-29T06:15:14;20.70;49.80
21439;DHT22;10880;50.302;18.736;2023-05-29T06:17:41;21.10;50.30
21439;DHT22;10880;50.302;18.736;2023-05-29T06:20:08;21.10;50.30
21439;DHT22;10880;50.302;18.736;2023-05-29T06:22:37;21.40;50.70
21439;DHT22;10880;50.302;18.736;2023-05-29T06:25:04;21.80;49.60
21439;DHT22;10880;50.302;18.736;2023-05-29T06:27:31;22.00;50.00
21439;DHT22;10880;50.302;18.736;2023-05-29T06:29:58;21.40;49.30
21439;DHT22;10880;50.302;18.736;2023-05-29T06:32:25;22.50;49.00
21439;DHT22;10880;50.302;18.736;2023-05-29T06:34:57;22.80;49.10
21439;DHT22;10880;50.302;18.736;2023-05-29T06:37:25;23.10;47.80
21439;DHT22;10880;50.302;18.736;2023-05-29T06:39:53;23.30;47.30
21439;DHT22;10880;50.302;18.736;2023-05-29T06:42:20;23.30;47.40
21439;DHT22;10880;50.302;18.736;2023-05-29T06:44:50;23.50;46.80
21439;DHT22;10880;50.302;18.736;2023-05-29T06:47:19;23.50;46.60
21439;DHT22;10880;50.302;18.736;2023-05-29T06:49:49;23.60;46.10
21439;DHT22;10880;50.302;18.736;2023-05-29T06:52:16;23.60;45.50
21439;DHT22;10880;50.302;18.736;2023-05-29T06:55:02;23.70;45.70
21439;DHT22;10880;50.302;18.736;2023-05-29T06:59:57;23.80;45.20
21439;DHT22;10880;50.302;18.736;2023-05-29T07:02:24;23.80;45.50
21439;DHT22;10880;50.302;18.736;2023-05-29T07:04:56;23.80;45.50
21439;DHT22;10880;50.302;18.736;2023-05-29T07:07:23;23.80;45.50
21439;DHT22;10880;50.302;18.736;2023-05-29T07:09:53;23.80;45.40
21439;DHT22;10880;50.302;18.736;2023-05-29T07:12:22;23.80;44.90
21439;DHT22;10880;50.302;18.736;2023-05-29T07:14:54;23.80;45.40
21439;DHT22;10880;50.302;18.736;2023-05-29T07:17:21;23.50;45.10
21439;DHT22;10880;50.302;18.736;2023-05-29T07:19:55;23.90;45.10
21439;DHT22;10880;50.302;18.736;2023-05-29T07:22:22;23.90;45.60
21439;DHT22;10880;50.302;18.736;2023-05-29T07:27:18;24.00;45.10
21439;DHT22;10880;50.302;18.736;2023-05-29T07:29:46;24.00;45.30
21439;DHT22;10880;50.302;18.736;2023-05-29T07:32:13;24.00;45.30
21439;DHT22;10880;50.302;18.736;2023-05-29T07:34:41;24.10;44.80
21439;DHT22;10880;50.302;18.736;2023-05-29T07:37:13;24.10;44.60
21439;DHT22;10880;50.302;18.736;2023-05-29T07:39:45;24.20;44.40
21439;DHT22;10880;50.302;18.736;2023-05-29T07:42:33;24.20;44.20
21439;DHT22;10880;50.302;18.736;2023-05-29T07:44:59;24.20;44.70
21439;DHT22;10880;50.302;18.736;2023-05-29T07:47:28;24.30;43.70
21439;DHT22;10880;50.302;18.736;2023-05-29T07:49:55;24.40;43.30
21439;DHT22;10880;50.302;18.736;2023-05-29T07:52:26;24.40;43.90
21439;DHT22;10880;50.302;18.736;2023-05-29T07:54:54;24.40;43.80
21439;DHT22;10880;50.302;18.736;2023-05-29T07:57:22;24.50;43.50
21439;DHT22;10880;50.302;18.736;2023-05-29T07:59:52;24.50;43.40
21439;DHT22;10880;50.302;18.736;2023-05-29T08:02:20;24.50;43.20
21439;DHT22;10880;50.302;18.736;2023-05-29T08:05:04;24.60;42.30
21439;DHT22;10880;50.302;18.736;2023-05-29T08:07:31;24.60;42.70
21439;DHT22;10880;50.302;18.736;2023-05-29T08:12:33;24.70;42.10
21439;DHT22;10880;50.302;18.736;2023-05-29T08:15:03;24.70;42.50
21439;DHT22;10880;50.302;18.736;2023-05-29T08:17:29;24.80;42.50
21439;DHT22;10880;50.302;18.736;2023-05-29T08:19:57;24.80;41.70
21439;DHT22;10880;50.302;18.736;2023-05-29T08:22:29;24.90;41.30
21439;DHT22;10880;50.302;18.736;2023-05-29T08:24:59;24.90;41.60
21439;DHT22;10880;50.302;18.736;2023-05-29T08:27:27;25.00;41.00
21439;DHT22;10880;50.302;18.736;2023-05-29T08:29:56;25.00;41.10
21439;DHT22;10880;50.302;18.736;2023-05-29T08:32:24;25.10;41.00
21439;DHT22;10880;50.302;18.736;2023-05-29T08:34:54;25.10;41.10
21439;DHT22;10880;50.302;18.736;2023-05-29T08:37:21;25.00;41.40
21439;DHT22;10880;50.302;18.736;2023-05-29T08:39:48;25.20;40.80
21439;DHT22;10880;50.302;18.736;2023-05-29T08:42:29;25.10;41.50
21439;DHT22;10880;50.302;18.736;2023-05-29T08:45:03;25.20;41.30
21439;DHT22;10880;50.302;18.736;2023-05-29T08:47:34;25.20;40.80
21439;DHT22;10880;50.302;18.736;2023-05-29T08:50:03;25.30;41.20
21439;DHT22;10880;50.302;18.736;2023-05-29T08:52:34;25.30;40.20
21439;DHT22;10880;50.302;18.736;2023-05-29T08:55:06;25.40;41.10
21439;DHT22;10880;50.302;18.736;2023-05-29T08:57:34;25.40;40.40
21439;DHT22;10880;50.302;18.736;2023-05-29T09:00:02;25.50;40.90
21439;DHT22;10880;50.302;18.736;2023-05-29T09:02:35;25.50;40.60
21439;DHT22;10880;50.302;18.736;2023-05-29T09:07:33;25.70;40.10
21439;DHT22;10880;50.302;18.736;2023-05-29T09:10:00;25.70;39.70
21439;DHT22;10880;50.302;18.736;2023-05-29T09:12:32;25.80;39.90
21439;DHT22;10880;50.302;18.736;2023-05-29T09:15:00;25.90;39.20
21439;DHT22;10880;50.302;18.736;2023-05-29T09:17:31;25.90;40.10
21439;DHT22;10880;50.302;18.736;2023-05-29T09:20:00;25.90;39.80
21439;DHT22;10880;50.302;18.736;2023-05-29T09:22:27;26.00;39.60
21439;DHT22;10880;50.302;18.736;2023-05-29T09:24:54;26.00;39.90
21439;DHT22;10880;50.302;18.736;2023-05-29T09:27:22;26.10;38.80
21439;DHT22;10880;50.302;18.736;2023-05-29T09:29:48;26.10;38.90
21439;DHT22;10880;50.302;18.736;2023-05-29T09:32:17;26.10;38.60
21439;DHT22;10880;50.302;18.736;2023-05-29T09:34:45;26.10;39.40
21439;DHT22;10880;50.302;18.736;2023-05-29T09:37:12;26.20;39.30
21439;DHT22;10880;50.302;18.736;2023-05-29T09:39:46;26.20;39.30
21439;DHT22;10880;50.302;18.736;2023-05-29T09:42:17;26.30;38.50
21439;DHT22;10880;50.302;18.736;2023-05-29T09:44:46;26.30;38.40
21439;DHT22;10880;50.302;18.736;2023-05-29T09:47:17;25.70;38.00
21439;DHT22;10880;50.302;18.736;2023-05-29T09:49:45;26.30;39.10
21439;DHT22;10880;50.302;18.736;2023-05-29T09:52:21;26.40;38.00
21439;DHT22;10880;50.302;18.736;2023-05-29T09:54:48;26.40;38.70
21439;DHT22;10880;50.302;18.736;2023-05-29T09:57:18;26.40;38.60
21439;DHT22;10880;50.302;18.736;2023-05-29T09:59:45;26.40;38.40
21439;DHT22;10880;50.302;18.736;2023-05-29T10:02:14;26.40;38.50
21439;DHT22;10880;50.302;18.736;2023-05-29T10:04:42;26.60;38.10
21439;DHT22;10880;50.302;18.736;2023-05-29T10:07:28;26.60;37.70
21439;DHT22;10880;50.302;18.736;2023-05-29T10:10:00;26.60;37.80
21439;DHT22;10880;50.302;18.736;2023-05-29T10:12:29;26.60;37.40
21439;DHT22;10880;50.302;18.736;2023-05-29T10:14:57;26.70;37.50
21439;DHT22;10880;50.302;18.736;2023-05-29T10:17:32;26.60;37.80
21439;DHT22;10880;50.302;18.736;2023-05-29T10:20:01;26.70;37.10
21439;DHT22;10880;50.302;18.736;2023-05-29T10:22:32;26.70;36.50
21439;DHT22;10880;50.302;18.736;2023-05-29T10:27:28;26.80;37.00
21439;DHT22;10880;50.302;18.736;2023-05-29T10:33:01;26.90;36.70
21439;DHT22;10880;50.302;18.736;2023-05-29T10:35:50;26.90;37.30
21439;DHT22;10880;50.302;18.736;2023-05-29T10:38:19;26.90;37.20
21439;DHT22;10880;50.302;18.736;2023-05-29T10:40:48;27.00;36.50
21439;DHT22;10880;50.302;18.736;2023-05-29T10:43:30;27.00;36.30
21439;DHT22;10880;50.302;18.736;2023-05-29T10:46:02;27.00;36.40
21439;DHT22;10880;50.302;18.736;2023-05-29T10:48:44;27.00;36.30
21439;DHT22;10880;50.302;18.736;2023-05-29T10:51:29;27.00;36.60
21439;DHT22;10880;50.302;18.736;2023-05-29T10:53:59;27.00;36.40
21439;DHT22;10880;50.302;18.736;2023-05-29T10:56:28;26.90;36.30
21439;DHT22;10880;50.302;18.736;2023-05-29T10:58:58;26.90;36.80
21439;DHT22;10880;50.302;18.736;2023-05-29T11:01:29;26.90;36.30
21439;DHT22;10880;50.302;18.736;2023-05-29T11:06:43;27.00;36.90
21439;DHT22;10880;50.302;18.736;2023-05-29T11:09:32;27.00;36.40
21439;DHT22;10880;50.302;18.736;2023-05-29T11:12:24;27.00;36.80
21439;DHT22;10880;50.302;18.736;2023-05-29T11:15:05;27.00;36.60
21439;DHT22;10880;50.302;18.736;2023-05-29T11:20:28;27.00;36.80
21439;DHT22;10880;50.302;18.736;2023-05-29T11:25:25;27.00;36.70
21439;DHT22;10880;50.302;18.736;2023-05-29T11:27:52;27.00;36.40
21439;DHT22;10880;50.302;18.736;2023-05-29T11:30:20;27.00;36.30
21439;DHT22;10880;50.302;18.736;2023-05-29T11:32:48;27.00;36.90
21439;DHT22;10880;50.302;18.736;2023-05-29T11:35:19;27.00;36.10
21439;DHT22;10880;50.302;18.736;2023-05-29T11:37:48;27.00;36.70
21439;DHT22;10880;50.302;18.736;2023-05-29T11:40:16;27.00;36.50
21439;DHT22;10880;50.302;18.736;2023-05-29T11:42:45;27.00;35.90
21439;DHT22;10880;50.302;18.736;2023-05-29T11:45:20;27.00;36.60
21439;DHT22;10880;50.302;18.736;2023-05-29T11:47:52;27.00;35.90
21439;DHT22;10880;50.302;18.736;2023-05-29T11:50:23;27.00;35.90
21439;DHT22;10880;50.302;18.736;2023-05-29T11:52:50;27.00;36.60
21439;DHT22;10880;50.302;18.736;2023-05-29T11:55:20;27.00;36.10
21439;DHT22;10880;50.302;18.736;2023-05-29T11:57:49;27.00;36.60
21439;DHT22;10880;50.302;18.736;2023-05-29T12:00:19;27.00;36.70
21439;DHT22;10880;50.302;18.736;2023-05-29T12:02:48;27.00;36.80
21439;DHT22;10880;50.302;18.736;2023-05-29T12:05:19;27.00;36.00
21439;DHT22;10880;50.302;18.736;2023-05-29T12:07:48;27.00;36.50
21439;DHT22;10880;50.302;18.736;2023-05-29T12:10:19;27.00;36.50
21439;DHT22;10880;50.302;18.736;2023-05-29T12:12:54;27.10;36.50
21439;DHT22;10880;50.302;18.736;2023-05-29T12:15:23;27.10;35.90
21439;DHT22;10880;50.302;18.736;2023-05-29T12:17:50;27.00;36.30
21439;DHT22;10880;50.302;18.736;2023-05-29T12:20:25;27.10;36.50
21439;DHT22;10880;50.302;18.736;2023-05-29T12:23:00;27.10;36.40
21439;DHT22;10880;50.302;18.736;2023-05-29T12:25:28;27.10;35.90
21439;DHT22;10880;50.302;18.736;2023-05-29T12:27:56;27.10;35.60
21439;DHT22;10880;50.302;18.736;2023-05-29T12:30:24;27.10;35.60
21439;DHT22;10880;50.302;18.736;2023-05-29T12:32:52;27.10;35.70
21439;DHT22;10880;50.302;18.736;2023-05-29T12:35:24;27.10;35.50
21439;DHT22;10880;50.302;18.736;2023-05-29T12:38:07;27.10;35.20
21439;DHT22;10880;50.302;18.736;2023-05-29T12:40:37;27.10;36.00
21439;DHT22;10880;50.302;18.736;2023-05-29T12:43:08;27.10;35.50
21439;DHT22;10880;50.302;18.736;2023-05-29T12:45:37;27.00;35.90
21439;DHT22;10880;50.302;18.736;2023-05-29T12:48:05;27.10;35.40
21439;DHT22;10880;50.302;18.736;2023-05-29T12:50:39;27.00;35.90
21439;DHT22;10880;50.302;18.736;2023-05-29T12:53:08;27.10;35.90
21439;DHT22;10880;50.302;18.736;2023-05-29T12:55:43;27.00;35.30
21439;DHT22;10880;50.302;18.736;2023-05-29T12:58:15;27.10;35.30
21439;DHT22;10880;50.302;18.736;2023-05-29T13:00:43;27.10;35.20
21439;DHT22;10880;50.302;18.736;2023-05-29T13:03:11;27.10;35.10
21439;DHT22;10880;50.302;18.736;2023-05-29T13:05:39;27.00;35.10
21439;DHT22;10880;50.302;18.736;2023-05-29T13:08:07;27.10;35.00
21439;DHT22;10880;50.302;18.736;2023-05-29T13:10:34;27.00;35.00
21439;DHT22;10880;50.302;18.736;2023-05-29T13:13:02;27.00;34.90
21439;DHT22;10880;50.302;18.736;2023-05-29T13:15:32;27.10;35.00
21439;DHT22;10880;50.302;18.736;2023-05-29T13:18:00;27.00;34.50
21439;DHT22;10880;50.302;18.736;2023-05-29T13:20:26;27.10;34.60
21439;DHT22;10880;50.302;18.736;2023-05-29T13:22:55;27.00;34.90
21439;DHT22;10880;50.302;18.736;2023-05-29T13:25:23;27.00;35.20
21439;DHT22;10880;50.302;18.736;2023-05-29T13:27:58;27.10;35.00
21439;DHT22;10880;50.302;18.736;2023-05-29T13:30:26;27.00;35.40
21439;DHT22;10880;50.302;18.736;2023-05-29T13:32:53;27.10;35.50
21439;DHT22;10880;50.302;18.736;2023-05-29T13:35:20;27.10;35.00
21439;DHT22;10880;50.302;18.736;2023-05-29T13:37:49;27.10;35.00
21439;DHT22;10880;50.302;18.736;2023-05-29T13:40:16;27.10;35.50
21439;DHT22;10880;50.302;18.736;2023-05-29T13:45:09;27.10;34.70
21439;DHT22;10880;50.302;18.736;2023-05-29T13:47:38;27.20;34.80
21439;DHT22;10880;50.302;18.736;2023-05-29T13:50:09;27.10;34.70
21439;DHT22;10880;50.302;18.736;2023-05-29T13:52:36;27.10;34.70
21439;DHT22;10880;50.302;18.736;2023-05-29T13:57:35;27.10;34.70
21439;DHT22;10880;50.302;18.736;2023-05-29T14:00:04;27.00;34.70
21439;DHT22;10880;50.302;18.736;2023-05-29T14:02:42;27.00;34.80
21439;DHT22;10880;50.302;18.736;2023-05-29T14:05:18;27.00;34.90
21439;DHT22;10880;50.302;18.736;2023-05-29T14:07:44;27.10;34.90
21439;DHT22;10880;50.302;18.736;2023-05-29T14:10:13;27.10;35.00
21439;DHT22;10880;50.302;18.736;2023-05-29T14:12:42;27.10;35.50
21439;DHT22;10880;50.302;18.736;2023-05-29T14:15:10;27.10;34.80
21439;DHT22;10880;50.302;18.736;2023-05-29T14:17:37;27.10;34.90
21439;DHT22;10880;50.302;18.736;2023-05-29T14:20:04;27.00;35.00
21439;DHT22;10880;50.302;18.736;2023-05-29T14:22:34;27.00;34.60
21439;DHT22;10880;50.302;18.736;2023-05-29T14:25:03;27.00;34.70
21439;DHT22;10880;50.302;18.736;2023-05-29T14:27:32;27.00;34.70
21439;DHT22;10880;50.302;18.736;2023-05-29T14:30:00;27.00;35.20
21439;DHT22;10880;50.302;18.736;2023-05-29T14:32:26;27.00;35.20
21439;DHT22;10880;50.302;18.736;2023-05-29T14:34:54;27.00;34.70
21439;DHT22;10880;50.302;18.736;2023-05-29T14:37:24;27.00;35.20
21439;DHT22;10880;50.302;18.736;2023-05-29T14:39:50;27.00;35.10
21439;DHT22;10880;50.302;18.736;2023-05-29T14:42:17;27.00;34.80
21439;DHT22;10880;50.302;18.736;2023-05-29T14:44:44;27.00;34.80
21439;DHT22;10880;50.302;18.736;2023-05-29T14:47:10;26.90;35.30
21439;DHT22;10880;50.302;18.736;2023-05-29T14:49:37;27.00;34.90
21439;DHT22;10880;50.302;18.736;2023-05-29T14:52:05;27.00;34.90
21439;DHT22;10880;50.302;18.736;2023-05-29T14:54:32;27.00;35.10
21439;DHT22;10880;50.302;18.736;2023-05-29T14:56:59;27.00;35.10
21439;DHT22;10880;50.302;18.736;2023-05-29T15:01:55;26.90;35.00
21439;DHT22;10880;50.302;18.736;2023-05-29T15:04:25;27.00;35.20
21439;DHT22;10880;50.302;18.736;2023-05-29T15:06:51;26.70;34.80
21439;DHT22;10880;50.302;18.736;2023-05-29T15:09:22;27.00;35.10
21439;DHT22;10880;50.302;18.736;2023-05-29T15:11:53;27.00;35.70
21439;DHT22;10880;50.302;18.736;2023-05-29T15:14:20;27.00;35.40
21439;DHT22;10880;50.302;18.736;2023-05-29T15:16:49;27.00;35.20
21439;DHT22;10880;50.302;18.736;2023-05-29T15:21:46;27.00;35.20
21439;DHT22;10880;50.302;18.736;2023-05-29T15:24:14;27.00;35.50
21439;DHT22;10880;50.302;18.736;2023-05-29T15:26:40;26.90;35.50
21439;DHT22;10880;50.302;18.736;2023-05-29T15:29:08;26.70;35.30
21439;DHT22;10880;50.302;18.736;2023-05-29T15:31:36;27.00;35.10
21439;DHT22;10880;50.302;18.736;2023-05-29T15:34:03;27.00;35.20
21439;DHT22;10880;50.302;18.736;2023-05-29T15:36:29;27.00;35.10
21439;DHT22;10880;50.302;18.736;2023-05-29T15:38:56;26.90;35.10
21439;DHT22;10880;50.302;18.736;2023-05-29T15:41:22;26.90;35.50
21439;DHT22;10880;50.302;18.736;2023-05-29T15:43:55;26.90;35.40
21439;DHT22;10880;50.302;18.736;2023-05-29T15:46:26;26.90;35.50
21439;DHT22;10880;50.302;18.736;2023-05-29T15:48:53;26.90;34.90
21439;DHT22;10880;50.302;18.736;2023-05-29T15:51:20;26.90;34.90
21439;DHT22;10880;50.302;18.736;2023-05-29T15:53:46;26.90;35.20
21439;DHT22;10880;50.302;18.736;2023-05-29T15:56:14;26.90;34.70
21439;DHT22;10880;50.302;18.736;2023-05-29T15:58:42;26.90;35.30
21439;DHT22;10880;50.302;18.736;2023-05-29T16:01:09;26.90;34.80
21439;DHT22;10880;50.302;18.736;2023-05-29T16:03:36;26.90;34.80
21439;DHT22;10880;50.302;18.736;2023-05-29T16:06:03;26.60;34.60
21439;DHT22;10880;50.302;18.736;2023-05-29T16:08:31;26.80;35.40
21439;DHT22;10880;50.302;18.736;2023-05-29T16:10:58;26.80;34.70
21439;DHT22;10880;50.302;18.736;2023-05-29T16:13:25;26.80;35.20
21439;DHT22;10880;50.302;18.736;2023-05-29T16:15:51;26.80;34.50
21439;DHT22;10880;50.302;18.736;2023-05-29T16:18:19;26.70;34.30
21439;DHT22;10880;50.302;18.736;2023-05-29T16:20:47;26.70;34.40
21439;DHT22;10880;50.302;18.736;2023-05-29T16:23:25;26.70;34.40
21439;DHT22;10880;50.302;18.736;2023-05-29T16:25:52;26.70;34.30
21439;DHT22;10880;50.302;18.736;2023-05-29T16:28:21;26.70;34.90
21439;DHT22;10880;50.302;18.736;2023-05-29T16:30:49;26.60;34.30
21439;DHT22;10880;50.302;18.736;2023-05-29T16:33:18;26.60;34.20